sensor_id;sensor_type;location;lat;lon;timestamp;P1;durP1;ratioP1;P2;durP2;ratioP2
44824;SDS011;30542;47.928;2.138;2023-04-03T00:02:04;1.67;;;1.50;;
44824;SDS011;30542;47.928;2.138;2023-04-03T00:07:05;1.63;;;1.40;;
44824;SDS011;30542;47.928;2.138;2023-04-03T00:12:05;2.23;;;1.80;;
44824;SDS011;30542;47.928;2.138;2023-04-03T00:17:05;2.00;;;1.77;;
44824;SDS011;30542;47.928;2.138;2023-04-03T00:22:06;2.13;;;1.90;;
44824;SDS011;30542;47.928;2.138;2023-04-03T00:27:06;3.03;;;1.67;;
44824;SDS011;30542;47.928;2.138;2023-04-03T00:32:06;2.87;;;1.90;;
44824;SDS011;30542;47.928;2.138;2023-04-03T00:37:07;1.60;;;1.50;;
44824;SDS011;30542;47.928;2.138;2023-04-03T00:42:07;2.37;;;2.13;;
44824;SDS011;30542;47.928;2.138;2023-04-03T00:47:08;1.77;;;1.67;;
44824;SDS011;30542;47.928;2.138;2023-04-03T00:52:13;1.85;;;1.70;;
44824;SDS011;30542;47.928;2.138;2023-04-03T00:57:17;2.53;;;2.33;;
44824;SDS011;30542;47.928;2.138;2023-04-03T01:02:18;2.05;;;1.90;;
44824;SDS011;30542;47.928;2.138;2023-04-03T01:07:22;2.37;;;1.67;;
44824;SDS011;30542;47.928;2.138;2023-04-03T01:12:27;1.77;;;1.67;;
44824;SDS011;30542;47.928;2.138;2023-04-03T01:22:37;1.40;;;1.30;;
44824;SDS011;30542;47.928;2.138;2023-04-03T01:27:45;1.70;;;1.60;;
44824;SDS011;30542;47.928;2.138;2023-04-03T01:32:45;1.90;;;1.70;;
44824;SDS011;30542;47.928;2.138;2023-04-03T01:37:46;1.38;;;1.27;;
44824;SDS011;30542;47.928;2.138;2023-04-03T01:42:46;1.97;;;1.67;;
44824;SDS011;30542;47.928;2.138;2023-04-03T01:47:46;2.20;;;1.70;;
44824;SDS011;30542;47.928;2.138;2023-04-03T01:52:47;3.03;;;1.63;;
44824;SDS011;30542;47.928;2.138;2023-04-03T01:57:47;1.60;;;1.47;;
44824;SDS011;30542;47.928;2.138;2023-04-03T02:02:47;2.03;;;1.53;;
44824;SDS011;30542;47.928;2.138;2023-04-03T02:07:48;1.67;;;1.57;;
44824;SDS011;30542;47.928;2.138;2023-04-03T02:12:48;1.80;;;1.70;;
44824;SDS011;30542;47.928;2.138;2023-04-03T02:17:48;1.40;;;1.27;;
44824;SDS011;30542;47.928;2.138;2023-04-03T02:22:49;1.20;;;1.10;;
44824;SDS011;30542;47.928;2.138;2023-04-03T02:27:49;1.53;;;1.40;;
44824;SDS011;30542;47.928;2.138;2023-04-03T02:32:50;1.42;;;1.30;;
44824;SDS011;30542;47.928;2.138;2023-04-03T02:37:50;1.30;;;1.20;;
44824;SDS011;30542;47.928;2.138;2023-04-03T02:42:51;1.67;;;1.30;;
44824;SDS011;30542;47.928;2.138;2023-04-03T02:47:51;1.45;;;1.35;;
44824;SDS011;30542;47.928;2.138;2023-04-03T02:52:51;1.15;;;1.15;;
44824;SDS011;30542;47.928;2.138;2023-04-03T02:57:51;1.27;;;1.13;;
44824;SDS011;30542;47.928;2.138;2023-04-03T03:02:52;1.30;;;1.20;;
44824;SDS011;30542;47.928;2.138;2023-04-03T03:07:52;1.10;;;1.00;;
44824;SDS011;30542;47.928;2.138;2023-04-03T03:12:53;1.02;;;0.82;;
44824;SDS011;30542;47.928;2.138;2023-04-03T03:17:53;1.23;;;1.13;;
44824;SDS011;30542;47.928;2.138;2023-04-03T03:22:53;0.80;;;0.80;;
44824;SDS011;30542;47.928;2.138;2023-04-03T03:27:54;1.00;;;0.97;;
44824;SDS011;30542;47.928;2.138;2023-04-03T03:32:54;1.33;;;1.20;;
44824;SDS011;30542;47.928;2.138;2023-04-03T03:37:55;1.73;;;1.13;;
44824;SDS011;30542;47.928;2.138;2023-04-03T03:42:55;0.77;;;0.77;;
44824;SDS011;30542;47.928;2.138;2023-04-03T03:47:55;0.80;;;0.75;;
44824;SDS011;30542;47.928;2.138;2023-04-03T03:52:55;1.20;;;0.90;;
44824;SDS011;30542;47.928;2.138;2023-04-03T03:57:56;1.30;;;1.10;;
44824;SDS011;30542;47.928;2.138;2023-04-03T04:02:56;0.93;;;0.90;;
44824;SDS011;30542;47.928;2.138;2023-04-03T04:07:57;1.10;;;1.00;;
44824;SDS011;30542;47.928;2.138;2023-04-03T04:12:57;1.65;;;1.17;;
44824;SDS011;30542;47.928;2.138;2023-04-03T04:17:58;1.57;;;0.90;;
44824;SDS011;30542;47.928;2.138;2023-04-03T04:22:58;1.20;;;0.85;;
44824;SDS011;30542;47.928;2.138;2023-04-03T04:27:58;1.35;;;1.05;;
44824;SDS011;30542;47.928;2.138;2023-04-03T04:32:59;1.35;;;1.15;;
44824;SDS011;30542;47.928;2.138;2023-04-03T04:37:59;4.75;;;2.05;;
44824;SDS011;30542;47.928;2.138;2023-04-03T04:43:00;3.17;;;2.35;;
44824;SDS011;30542;47.928;2.138;2023-04-03T04:48:00;2.37;;;1.90;;
44824;SDS011;30542;47.928;2.138;2023-04-03T04:53:01;4.70;;;2.57;;
44824;SDS011;30542;47.928;2.138;2023-04-03T04:58:01;6.20;;;3.20;;
44824;SDS011;30542;47.928;2.138;2023-04-03T05:03:01;4.27;;;3.03;;
44824;SDS011;30542;47.928;2.138;2023-04-03T05:08:02;5.53;;;3.40;;
44824;SDS011;30542;47.928;2.138;2023-04-03T05:13:03;23.75;;;8.65;;
44824;SDS011;30542;47.928;2.138;2023-04-03T05:18:03;51.45;;;17.23;;
44824;SDS011;30542;47.928;2.138;2023-04-03T05:23:05;67.80;;;23.33;;
44824;SDS011;30542;47.928;2.138;2023-04-03T05:28:06;64.80;;;24.13;;
44824;SDS011;30542;47.928;2.138;2023-04-03T05:33:06;65.35;;;25.13;;
44824;SDS011;30542;47.928;2.138;2023-04-03T05:38:07;68.03;;;22.83;;
44824;SDS011;30542;47.928;2.138;2023-04-03T05:43:07;62.35;;;22.45;;
44824;SDS011;30542;47.928;2.138;2023-04-03T05:48:08;59.73;;;22.27;;
44824;SDS011;30542;47.928;2.138;2023-04-03T05:53:12;58.47;;;21.43;;
44824;SDS011;30542;47.928;2.138;2023-04-03T05:58:17;49.45;;;19.27;;
44824;SDS011;30542;47.928;2.138;2023-04-03T06:03:18;60.57;;;19.23;;
44824;SDS011;30542;47.928;2.138;2023-04-03T06:08:18;42.50;;;17.90;;
44824;SDS011;30542;47.928;2.138;2023-04-03T06:13:18;49.37;;;19.37;;
44824;SDS011;30542;47.928;2.138;2023-04-03T06:18:19;46.88;;;18.60;;
44824;SDS011;30542;47.928;2.138;2023-04-03T06:23:19;38.10;;;16.37;;
44824;SDS011;30542;47.928;2.138;2023-04-03T06:28:19;41.33;;;17.30;;
44824;SDS011;30542;47.928;2.138;2023-04-03T06:33:20;37.07;;;16.23;;
44824;SDS011;30542;47.928;2.138;2023-04-03T06:38:20;41.53;;;16.47;;
44824;SDS011;30542;47.928;2.138;2023-04-03T06:43:21;39.10;;;16.63;;
44824;SDS011;30542;47.928;2.138;2023-04-03T06:48:21;31.40;;;14.75;;
44824;SDS011;30542;47.928;2.138;2023-04-03T06:53:22;34.20;;;14.30;;
44824;SDS011;30542;47.928;2.138;2023-04-03T06:58:22;27.25;;;14.10;;
44824;SDS011;30542;47.928;2.138;2023-04-03T07:03:23;29.07;;;14.23;;
44824;SDS011;30542;47.928;2.138;2023-04-03T07:08:23;22.33;;;12.90;;
44824;SDS011;30542;47.928;2.138;2023-04-03T07:13:25;24.98;;;13.30;;
44824;SDS011;30542;47.928;2.138;2023-04-03T07:18:26;24.70;;;12.43;;
44824;SDS011;30542;47.928;2.138;2023-04-03T07:23:26;23.03;;;11.93;;
44824;SDS011;30542;47.928;2.138;2023-04-03T07:28:27;24.90;;;11.75;;
44824;SDS011;30542;47.928;2.138;2023-04-03T07:33:28;21.48;;;11.18;;
44824;SDS011;30542;47.928;2.138;2023-04-03T07:38:28;21.08;;;11.35;;
44824;SDS011;30542;47.928;2.138;2023-04-03T07:43:29;22.70;;;11.23;;
44824;SDS011;30542;47.928;2.138;2023-04-03T07:48:29;23.85;;;11.00;;
44824;SDS011;30542;47.928;2.138;2023-04-03T07:53:30;17.97;;;9.30;;
44824;SDS011;30542;47.928;2.138;2023-04-03T07:58:30;20.40;;;9.63;;
44824;SDS011;30542;47.928;2.138;2023-04-03T08:03:31;21.98;;;10.63;;
44824;SDS011;30542;47.928;2.138;2023-04-03T08:08:31;17.55;;;9.60;;
44824;SDS011;30542;47.928;2.138;2023-04-03T08:13:32;15.35;;;9.25;;
44824;SDS011;30542;47.928;2.138;2023-04-03T08:18:34;14.60;;;8.30;;
44824;SDS011;30542;47.928;2.138;2023-04-03T08:23:35;12.60;;;7.88;;
44824;SDS011;30542;47.928;2.138;2023-04-03T08:28:35;15.27;;;8.13;;
44824;SDS011;30542;47.928;2.138;2023-04-03T08:33:36;14.32;;;7.95;;
44824;SDS011;30542;47.928;2.138;2023-04-03T08:38:37;13.07;;;7.30;;
44824;SDS011;30542;47.928;2.138;2023-04-03T08:48:46;14.18;;;8.52;;
44824;SDS011;30542;47.928;2.138;2023-04-03T08:58:58;13.40;;;7.43;;
44824;SDS011;30542;47.928;2.138;2023-04-03T09:04:09;12.75;;;6.95;;
44824;SDS011;30542;47.928;2.138;2023-04-03T09:09:13;11.82;;;7.55;;
44824;SDS011;30542;47.928;2.138;2023-04-03T09:24:31;9.88;;;5.88;;
44824;SDS011;30542;47.928;2.138;2023-04-03T09:29:32;10.68;;;6.20;;
44824;SDS011;30542;47.928;2.138;2023-04-03T09:34:38;9.35;;;5.95;;
44824;SDS011;30542;47.928;2.138;2023-04-03T09:39:48;8.25;;;5.75;;
44824;SDS011;30542;47.928;2.138;2023-04-03T09:45:00;9.45;;;5.95;;
44824;SDS011;30542;47.928;2.138;2023-04-03T09:55:15;7.50;;;4.75;;
44824;SDS011;30542;47.928;2.138;2023-04-03T10:00:21;8.02;;;4.72;;
44824;SDS011;30542;47.928;2.138;2023-04-03T10:10:35;7.22;;;5.03;;
44824;SDS011;30542;47.928;2.138;2023-04-03T10:15:39;6.95;;;4.50;;
44824;SDS011;30542;47.928;2.138;2023-04-03T10:20:53;8.30;;;4.73;;
44824;SDS011;30542;47.928;2.138;2023-04-03T10:26:03;7.22;;;4.43;;
44824;SDS011;30542;47.928;2.138;2023-04-03T10:42:13;5.53;;;3.75;;
44824;SDS011;30542;47.928;2.138;2023-04-03T10:47:24;6.80;;;4.20;;
44824;SDS011;30542;47.928;2.138;2023-04-03T10:52:42;7.20;;;4.28;;
44824;SDS011;30542;47.928;2.138;2023-04-03T10:57:50;5.35;;;3.13;;
44824;SDS011;30542;47.928;2.138;2023-04-03T11:02:53;5.25;;;3.70;;
44824;SDS011;30542;47.928;2.138;2023-04-03T11:07:57;5.80;;;3.50;;
44824;SDS011;30542;47.928;2.138;2023-04-03T11:18:37;4.88;;;3.30;;
44824;SDS011;30542;47.928;2.138;2023-04-03T11:23:44;4.72;;;3.45;;
44824;SDS011;30542;47.928;2.138;2023-04-03T11:28:46;4.75;;;3.80;;
44824;SDS011;30542;47.928;2.138;2023-04-03T11:39:35;4.05;;;3.42;;
44824;SDS011;30542;47.928;2.138;2023-04-03T11:44:40;3.83;;;2.70;;
44824;SDS011;30542;47.928;2.138;2023-04-03T11:49:51;4.95;;;3.10;;
44824;SDS011;30542;47.928;2.138;2023-04-03T11:54:53;4.22;;;3.35;;
44824;SDS011;30542;47.928;2.138;2023-04-03T11:59:54;3.20;;;2.60;;
44824;SDS011;30542;47.928;2.138;2023-04-03T12:10:29;4.00;;;2.38;;
44824;SDS011;30542;47.928;2.138;2023-04-03T12:15:43;4.43;;;2.65;;
44824;SDS011;30542;47.928;2.138;2023-04-03T12:25:50;4.50;;;2.90;;
44824;SDS011;30542;47.928;2.138;2023-04-03T12:30:53;4.03;;;2.58;;
44824;SDS011;30542;47.928;2.138;2023-04-03T12:35:57;3.80;;;2.22;;
44824;SDS011;30542;47.928;2.138;2023-04-03T12:46:51;3.08;;;1.95;;
44824;SDS011;30542;47.928;2.138;2023-04-03T12:51:52;3.25;;;2.15;;
44824;SDS011;30542;47.928;2.138;2023-04-03T12:57:12;3.10;;;2.55;;
44824;SDS011;30542;47.928;2.138;2023-04-03T13:02:32;2.13;;;1.80;;
44824;SDS011;30542;47.928;2.138;2023-04-03T13:07:35;2.40;;;1.80;;
44824;SDS011;30542;47.928;2.138;2023-04-03T13:12:45;2.97;;;1.75;;
44824;SDS011;30542;47.928;2.138;2023-04-03T13:17:46;2.97;;;1.90;;
44824;SDS011;30542;47.928;2.138;2023-04-03T13:23:21;3.47;;;2.17;;
44824;SDS011;30542;47.928;2.138;2023-04-03T13:28:19;2.47;;;1.92;;
44824;SDS011;30542;47.928;2.138;2023-04-03T13:33:24;2.10;;;1.90;;
44824;SDS011;30542;47.928;2.138;2023-04-03T13:38:28;2.63;;;2.05;;
44824;SDS011;30542;47.928;2.138;2023-04-03T13:43:35;2.00;;;1.58;;
44824;SDS011;30542;47.928;2.138;2023-04-03T13:48:41;2.28;;;1.40;;
44824;SDS011;30542;47.928;2.138;2023-04-03T13:53:57;2.80;;;1.77;;
44824;SDS011;30542;47.928;2.138;2023-04-03T13:59:01;2.40;;;1.58;;
44824;SDS011;30542;47.928;2.138;2023-04-03T14:04:18;2.20;;;1.58;;
44824;SDS011;30542;47.928;2.138;2023-04-03T14:09:21;1.58;;;1.33;;
44824;SDS011;30542;47.928;2.138;2023-04-03T14:14:24;1.75;;;1.50;;
44824;SDS011;30542;47.928;2.138;2023-04-03T14:19:34;2.17;;;1.58;;
44824;SDS011;30542;47.928;2.138;2023-04-03T14:24:35;1.58;;;1.40;;
44824;SDS011;30542;47.928;2.138;2023-04-03T14:29:36;1.53;;;1.37;;
44824;SDS011;30542;47.928;2.138;2023-04-03T14:34:36;2.37;;;1.67;;
44824;SDS011;30542;47.928;2.138;2023-04-03T14:39:36;2.43;;;1.67;;
44824;SDS011;30542;47.928;2.138;2023-04-03T14:44:37;1.98;;;1.58;;
44824;SDS011;30542;47.928;2.138;2023-04-03T14:49:38;2.58;;;1.63;;
44824;SDS011;30542;47.928;2.138;2023-04-03T14:54:38;1.55;;;1.15;;
44824;SDS011;30542;47.928;2.138;2023-04-03T14:59:38;1.48;;;1.17;;
44824;SDS011;30542;47.928;2.138;2023-04-03T15:04:39;1.30;;;0.93;;
44824;SDS011;30542;47.928;2.138;2023-04-03T15:09:39;1.57;;;1.30;;
44824;SDS011;30542;47.928;2.138;2023-04-03T15:14:39;1.23;;;0.90;;
44824;SDS011;30542;47.928;2.138;2023-04-03T15:19:40;1.30;;;0.73;;
44824;SDS011;30542;47.928;2.138;2023-04-03T15:24:41;1.45;;;1.00;;
44824;SDS011;30542;47.928;2.138;2023-04-03T15:29:43;1.60;;;1.02;;
44824;SDS011;30542;47.928;2.138;2023-04-03T15:34:44;1.23;;;0.90;;
44824;SDS011;30542;47.928;2.138;2023-04-03T15:39:44;1.90;;;1.10;;
44824;SDS011;30542;47.928;2.138;2023-04-03T15:44:45;1.27;;;1.13;;
44824;SDS011;30542;47.928;2.138;2023-04-03T15:49:45;1.17;;;1.08;;
44824;SDS011;30542;47.928;2.138;2023-04-03T15:54:45;2.70;;;0.90;;
44824;SDS011;30542;47.928;2.138;2023-04-03T15:59:46;1.23;;;0.88;;
44824;SDS011;30542;47.928;2.138;2023-04-03T16:04:46;1.20;;;0.70;;
44824;SDS011;30542;47.928;2.138;2023-04-03T16:09:47;2.13;;;0.90;;
44824;SDS011;30542;47.928;2.138;2023-04-03T16:14:47;1.40;;;0.80;;
44824;SDS011;30542;47.928;2.138;2023-04-03T16:19:48;1.67;;;0.73;;
44824;SDS011;30542;47.928;2.138;2023-04-03T16:24:48;2.20;;;0.80;;
44824;SDS011;30542;47.928;2.138;2023-04-03T16:29:49;1.85;;;1.35;;
44824;SDS011;30542;47.928;2.138;2023-04-03T16:34:49;1.30;;;1.00;;
44824;SDS011;30542;47.928;2.138;2023-04-03T16:39:50;2.90;;;1.08;;
44824;SDS011;30542;47.928;2.138;2023-04-03T16:44:51;2.17;;;1.00;;
44824;SDS011;30542;47.928;2.138;2023-04-03T16:49:51;2.50;;;1.60;;
44824;SDS011;30542;47.928;2.138;2023-04-03T16:54:51;3.40;;;1.43;;
44824;SDS011;30542;47.928;2.138;2023-04-03T16:59:55;1.98;;;1.00;;
44824;SDS011;30542;47.928;2.138;2023-04-03T17:04:55;2.97;;;0.90;;
44824;SDS011;30542;47.928;2.138;2023-04-03T17:09:55;2.40;;;1.10;;
44824;SDS011;30542;47.928;2.138;2023-04-03T17:14:56;1.35;;;1.00;;
44824;SDS011;30542;47.928;2.138;2023-04-03T17:19:57;2.07;;;0.67;;
44824;SDS011;30542;47.928;2.138;2023-04-03T17:24:57;1.53;;;0.83;;
44824;SDS011;30542;47.928;2.138;2023-04-03T17:29:58;1.27;;;0.80;;
44824;SDS011;30542;47.928;2.138;2023-04-03T17:34:58;1.70;;;0.87;;
44824;SDS011;30542;47.928;2.138;2023-04-03T17:39:59;1.55;;;0.85;;
44824;SDS011;30542;47.928;2.138;2023-04-03T17:44:59;1.87;;;0.77;;
44824;SDS011;30542;47.928;2.138;2023-04-03T17:50:00;2.50;;;0.80;;
44824;SDS011;30542;47.928;2.138;2023-04-03T17:55:00;3.43;;;0.93;;
44824;SDS011;30542;47.928;2.138;2023-04-03T18:00:01;1.03;;;0.80;;
44824;SDS011;30542;47.928;2.138;2023-04-03T18:05:01;1.00;;;0.53;;
44824;SDS011;30542;47.928;2.138;2023-04-03T18:10:02;1.10;;;0.90;;
44824;SDS011;30542;47.928;2.138;2023-04-03T18:15:04;3.15;;;0.80;;
44824;SDS011;30542;47.928;2.138;2023-04-03T18:20:05;2.03;;;0.60;;
44824;SDS011;30542;47.928;2.138;2023-04-03T18:25:06;1.10;;;0.95;;
44824;SDS011;30542;47.928;2.138;2023-04-03T18:30:08;7.78;;;0.80;;
44824;SDS011;30542;47.928;2.138;2023-04-03T18:35:11;4.72;;;0.70;;
44824;SDS011;30542;47.928;2.138;2023-04-03T18:40:12;3.40;;;0.90;;
44824;SDS011;30542;47.928;2.138;2023-04-03T18:45:12;1.15;;;0.75;;
44824;SDS011;30542;47.928;2.138;2023-04-03T18:50:20;1.95;;;0.90;;
44824;SDS011;30542;47.928;2.138;2023-04-03T18:55:20;1.80;;;0.80;;
44824;SDS011;30542;47.928;2.138;2023-04-03T19:00:20;1.58;;;0.65;;
44824;SDS011;30542;47.928;2.138;2023-04-03T19:05:21;2.45;;;0.85;;
44824;SDS011;30542;47.928;2.138;2023-04-03T19:10:22;2.60;;;1.35;;
44824;SDS011;30542;47.928;2.138;2023-04-03T19:15:23;2.55;;;0.88;;
44824;SDS011;30542;47.928;2.138;2023-04-03T19:20:24;1.08;;;0.50;;
44824;SDS011;30542;47.928;2.138;2023-04-03T19:25:25;2.58;;;0.75;;
44824;SDS011;30542;47.928;2.138;2023-04-03T19:30:25;0.93;;;0.70;;
44824;SDS011;30542;47.928;2.138;2023-04-03T19:35:26;1.13;;;0.85;;
44824;SDS011;30542;47.928;2.138;2023-04-03T19:40:27;0.83;;;0.77;;
44824;SDS011;30542;47.928;2.138;2023-04-03T19:45:28;1.33;;;0.63;;
44824;SDS011;30542;47.928;2.138;2023-04-03T19:50:29;1.00;;;0.50;;
44824;SDS011;30542;47.928;2.138;2023-04-03T19:55:29;1.23;;;0.63;;
44824;SDS011;30542;47.928;2.138;2023-04-03T20:00:30;2.75;;;0.70;;
44824;SDS011;30542;47.928;2.138;2023-04-03T20:05:31;0.93;;;0.60;;
44824;SDS011;30542;47.928;2.138;2023-04-03T20:10:32;2.00;;;0.60;;
44824;SDS011;30542;47.928;2.138;2023-04-03T20:15:34;0.80;;;0.50;;
44824;SDS011;30542;47.928;2.138;2023-04-03T20:20:39;1.20;;;0.70;;
44824;SDS011;30542;47.928;2.138;2023-04-03T20:25:44;1.95;;;0.70;;
44824;SDS011;30542;47.928;2.138;2023-04-03T20:30:46;1.67;;;0.70;;
44824;SDS011;30542;47.928;2.138;2023-04-03T20:35:48;1.33;;;0.60;;
44824;SDS011;30542;47.928;2.138;2023-04-03T20:40:49;1.90;;;0.80;;
44824;SDS011;30542;47.928;2.138;2023-04-03T20:45:50;2.93;;;0.60;;
44824;SDS011;30542;47.928;2.138;2023-04-03T20:50:50;2.00;;;0.43;;
44824;SDS011;30542;47.928;2.138;2023-04-03T20:55:54;1.77;;;0.53;;
44824;SDS011;30542;47.928;2.138;2023-04-03T21:00:55;0.75;;;0.40;;
44824;SDS011;30542;47.928;2.138;2023-04-03T21:21:38;0.73;;;0.60;;
44824;SDS011;30542;47.928;2.138;2023-04-03T21:26:39;1.25;;;0.60;;
44824;SDS011;30542;47.928;2.138;2023-04-03T21:37:00;0.45;;;0.45;;
44824;SDS011;30542;47.928;2.138;2023-04-03T21:42:02;0.70;;;0.50;;
44824;SDS011;30542;47.928;2.138;2023-04-03T21:47:03;0.70;;;0.40;;
44824;SDS011;30542;47.928;2.138;2023-04-03T21:52:03;0.93;;;0.45;;
44824;SDS011;30542;47.928;2.138;2023-04-03T21:57:04;0.90;;;0.60;;
44824;SDS011;30542;47.928;2.138;2023-04-03T22:02:04;0.93;;;0.40;;
44824;SDS011;30542;47.928;2.138;2023-04-03T22:07:05;1.33;;;0.47;;
44824;SDS011;30542;47.928;2.138;2023-04-03T22:12:05;0.75;;;0.38;;
44824;SDS011;30542;47.928;2.138;2023-04-03T22:17:07;0.73;;;0.40;;
44824;SDS011;30542;47.928;2.138;2023-04-03T22:22:08;0.93;;;0.60;;
44824;SDS011;30542;47.928;2.138;2023-04-03T22:27:08;1.88;;;0.50;;
44824;SDS011;30542;47.928;2.138;2023-04-03T22:32:08;0.65;;;0.45;;
44824;SDS011;30542;47.928;2.138;2023-04-03T22:37:09;0.43;;;0.40;;
44824;SDS011;30542;47.928;2.138;2023-04-03T22:42:09;1.13;;;0.50;;
44824;SDS011;30542;47.928;2.138;2023-04-03T22:47:09;1.15;;;0.32;;
44824;SDS011;30542;47.928;2.138;2023-04-03T22:52:10;0.40;;;0.40;;
44824;SDS011;30542;47.928;2.138;2023-04-03T22:57:10;1.03;;;0.40;;
44824;SDS011;30542;47.928;2.138;2023-04-03T23:02:10;0.57;;;0.47;;
44824;SDS011;30542;47.928;2.138;2023-04-03T23:07:11;1.17;;;0.50;;
44824;SDS011;30542;47.928;2.138;2023-04-03T23:12:12;0.55;;;0.47;;
44824;SDS011;30542;47.928;2.138;2023-04-03T23:17:12;0.95;;;0.45;;
44824;SDS011;30542;47.928;2.138;2023-04-03T23:22:12;0.50;;;0.33;;
44824;SDS011;30542;47.928;2.138;2023-04-03T23:27:13;0.60;;;0.40;;
44824;SDS011;30542;47.928;2.138;2023-04-03T23:32:14;0.63;;;0.40;;
44824;SDS011;30542;47.928;2.138;2023-04-03T23:37:15;0.70;;;0.40;;
44824;SDS011;30542;47.928;2.138;2023-04-03T23:42:16;0.40;;;0.30;;
44824;SDS011;30542;47.928;2.138;2023-04-03T23:47:16;0.93;;;0.45;;
44824;SDS011;30542;47.928;2.138;2023-04-03T23:52:16;1.08;;;0.60;;
44824;SDS011;30542;47.928;2.138;2023-04-03T23:57:17;0.65;;;0.40;;
